Time;durP1;ratioP1;P1;durP2;ratioP2;P2;SDS_P1;SDS_P2;PMS_P1;PMS_P2;Temp;Humidity;BMP_temperature;BMP_pressure;BME280_temperature;BME280_humidity;BME280_pressure;Samples;Min_cycle;Max_cycle;Signal;HPM_P1;HPM_P2
2022/09/16 00:03:04;;;;;;;13.13;5.78;;;;;;;13.95;100.00;99840.50;21053577;28;20523;-77
2022/09/16 00:13:05;;;;;;;13.98;6.05;;;;;;;13.80;100.00;99830.59;21070911;28;20125;-77
2022/09/16 00:23:06;;;;;;;12.27;6.55;;;;;;;13.67;100.00;99845.09;21053620;28;20052;-77
2022/09/16 00:33:08;;;;;;;9.02;6.15;;;;;;;13.63;100.00;99832.97;21065076;28;20466;-77
2022/09/16 00:43:09;;;;;;;11.50;6.38;;;;;;;13.48;100.00;99824.72;21068890;28;20052;-77
2022/09/16 00:53:11;;;;;;;10.95;5.88;;;;;;;13.34;100.00;99832.28;21051556;28;20083;-77
2022/09/16 01:03:12;;;;;;;13.70;6.20;;;;;;;13.56;100.00;99840.25;21055444;28;20078;-76
2022/09/16 01:13:13;;;;;;;9.52;6.53;;;;;;;13.30;100.00;99821.00;21067225;28;20067;-77
2022/09/16 01:23:14;;;;;;;10.02;6.45;;;;;;;13.23;100.00;99816.88;21065814;28;20429;-77
2022/09/16 01:33:16;;;;;;;12.82;7.22;;;;;;;13.32;100.00;99810.44;21083603;28;20102;-77
2022/09/16 01:43:20;;;;;;;14.95;7.72;;;;;;;13.32;100.00;99808.66;21064783;28;20067;-80
2022/09/16 01:53:21;;;;;;;9.77;6.20;;;;;;;13.28;100.00;99822.84;21081598;28;20106;-77
2022/09/16 02:03:22;;;;;;;12.60;6.75;;;;;;;13.28;100.00;99821.97;21080180;28;20416;-77
2022/09/16 02:13:24;;;;;;;13.00;6.70;;;;;;;13.25;100.00;99833.44;21076879;28;20052;-76
2022/09/16 02:23:25;;;;;;;12.30;6.55;;;;;;;13.31;100.00;99832.38;21101548;28;20048;-77
2022/09/16 02:33:27;;;;;;;10.13;5.85;;;;;;;13.27;100.00;99836.00;21246391;27;20062;-76
2022/09/16 02:43:28;;;;;;;8.45;5.88;;;;;;;13.25;100.00;99825.56;21246955;27;20078;-77
2022/09/16 02:53:30;;;;;;;14.98;5.93;;;;;;;13.32;100.00;99834.09;21227741;27;20108;-77
2022/09/16 03:03:31;;;;;;;14.05;6.05;;;;;;;13.34;100.00;99827.00;21245371;27;20088;-77
2022/09/16 03:13:33;;;;;;;10.65;7.32;;;;;;;13.46;100.00;99829.22;21226167;27;20055;-77
2022/09/16 03:23:34;;;;;;;10.13;5.03;;;;;;;13.44;100.00;99828.38;21244497;27;20051;-77
2022/09/16 03:33:36;;;;;;;9.05;5.55;;;;;;;13.35;100.00;99807.69;21243481;27;20506;-77
2022/09/16 03:43:37;;;;;;;9.82;5.55;;;;;;;13.50;100.00;99806.25;21223874;27;20055;-77
2022/09/16 03:53:39;;;;;;;10.95;5.70;;;;;;;13.45;100.00;99803.81;21246530;27;20062;-77
2022/09/16 04:03:40;;;;;;;10.68;5.32;;;;;;;13.42;100.00;99816.22;21252957;27;20055;-77
2022/09/16 04:13:41;;;;;;;10.02;5.55;;;;;;;13.25;100.00;99811.56;21240309;27;20059;-77
2022/09/16 04:23:42;;;;;;;12.85;6.25;;;;;;;13.27;100.00;99812.34;21243092;27;20047;-78
2022/09/16 04:33:44;;;;;;;16.75;6.05;;;;;;;13.06;100.00;99812.19;21241873;27;20074;-77
2022/09/16 04:43:45;;;;;;;13.30;6.53;;;;;;;13.06;100.00;99804.31;21255613;27;20047;-77
2022/09/16 04:53:46;;;;;;;9.88;6.15;;;;;;;13.10;100.00;99807.69;21239133;27;20051;-77
2022/09/16 05:03:48;;;;;;;14.63;7.35;;;;;;;13.12;100.00;99812.88;21255567;27;20047;-77
2022/09/16 05:13:49;;;;;;;12.93;7.50;;;;;;;13.18;100.00;99813.53;21237440;27;20047;-77
2022/09/16 05:23:51;;;;;;;11.02;6.70;;;;;;;13.32;100.00;99819.19;21255801;27;20055;-77
2022/09/16 05:33:52;;;;;;;15.48;6.60;;;;;;;13.39;100.00;99804.03;21253548;27;20100;-77
2022/09/16 05:43:56;;;;;;;12.48;6.43;;;;;;;13.40;100.00;99816.25;21258952;27;20055;-77
2022/09/16 05:53:57;;;;;;;13.17;6.13;;;;;;;13.37;100.00;99821.66;21241136;27;20047;-78
2022/09/16 06:03:59;;;;;;;9.60;6.80;;;;;;;13.45;100.00;99819.56;21250555;27;20116;-77
2022/09/16 06:14:00;;;;;;;13.55;7.07;;;;;;;13.28;100.00;99828.09;21250607;27;20055;-77
2022/09/16 06:24:02;;;;;;;9.10;5.50;;;;;;;13.37;100.00;99826.91;21253855;27;20392;-77
2022/09/16 06:44:12;;;;;;;9.95;6.35;;;;;;;13.59;100.00;99825.19;20661327;28;20054;-69
2022/09/16 06:54:14;;;;;;;14.30;6.53;;;;;;;13.74;100.00;99849.22;20662300;28;20077;-69
2022/09/16 07:04:15;;;;;;;14.48;6.75;;;;;;;13.92;100.00;99840.63;20661361;28;20050;-69
2022/09/16 07:14:16;;;;;;;10.13;6.38;;;;;;;14.15;100.00;99841.50;20634176;28;20400;-70
2022/09/16 07:24:18;;;;;;;10.88;6.78;;;;;;;14.30;100.00;99848.81;20653220;28;20116;-70
2022/09/16 07:34:20;;;;;;;9.55;5.00;;;;;;;14.52;100.00;99843.56;20651936;28;20061;-69
2022/09/16 07:44:21;;;;;;;6.53;4.25;;;;;;;14.65;100.00;99854.44;20650520;28;20058;-70
2022/09/16 07:54:22;;;;;;;8.63;4.60;;;;;;;14.47;100.00;99853.38;20639731;28;20058;-70
2022/09/16 08:04:24;;;;;;;9.70;4.68;;;;;;;15.17;100.00;99860.16;20656925;28;20077;-72
2022/09/16 08:14:25;;;;;;;10.52;5.35;;;;;;;15.19;100.00;99861.81;20656566;28;20066;-71
2022/09/16 08:24:26;;;;;;;10.63;4.45;;;;;;;15.03;100.00;99868.66;20656585;28;20046;-70
2022/09/16 08:34:28;;;;;;;10.38;4.50;;;;;;;15.08;100.00;99883.34;20655934;28;20573;-70
2022/09/16 08:44:29;;;;;;;11.27;5.28;;;;;;;15.11;100.00;99892.94;20655456;28;20058;-71
2022/09/16 08:54:30;;;;;;;12.35;4.60;;;;;;;14.89;100.00;99899.09;20655337;28;20054;-70
2022/09/16 09:04:32;;;;;;;12.98;4.80;;;;;;;14.87;100.00;99900.94;20653565;28;20113;-70
2022/09/16 09:14:33;;;;;;;8.32;5.10;;;;;;;15.02;100.00;99910.00;20655273;28;20078;-70
2022/09/16 09:24:34;;;;;;;10.00;4.95;;;;;;;15.23;100.00;99899.44;20659920;28;20427;-70
2022/09/16 09:34:36;;;;;;;7.82;3.97;;;;;;;15.03;100.00;99889.75;20667690;28;20491;-70
2022/09/16 09:44:42;;;;;;;10.13;3.97;;;;;;;15.52;100.00;99893.78;20670072;28;20062;-70
2022/09/16 09:54:43;;;;;;;9.05;3.92;;;;;;;15.92;100.00;99896.44;20668868;28;20113;-70
2022/09/16 10:04:45;;;;;;;7.90;3.67;;;;;;;16.31;100.00;99878.72;20666185;28;20059;-70
2022/09/16 10:14:46;;;;;;;10.48;3.83;;;;;;;16.21;100.00;99876.59;20666286;28;20466;-70
2022/09/16 10:24:53;;;;;;;10.35;3.67;;;;;;;16.39;100.00;99875.72;20618999;28;20146;-70
2022/09/16 10:34:54;;;;;;;6.95;2.50;;;;;;;16.71;100.00;99882.06;20582382;28;20109;-69
2022/09/16 10:44:56;;;;;;;6.72;2.20;;;;;;;16.87;100.00;99877.78;20583086;28;20059;-69
2022/09/16 10:54:57;;;;;;;6.72;2.00;;;;;;;17.37;100.00;99876.13;20582581;28;20117;-71
2022/09/16 11:04:58;;;;;;;3.83;1.45;;;;;;;17.25;91.59;99861.75;20612456;28;20770;-69
2022/09/16 11:15:00;;;;;;;2.65;0.93;;;;;;;17.82;80.44;99866.72;20660867;28;20414;-69
2022/09/16 11:25:01;;;;;;;3.75;1.00;;;;;;;17.66;58.85;99862.22;20660260;28;20400;-69
2022/09/16 11:35:02;;;;;;;6.30;1.38;;;;;;;17.35;59.95;99867.44;20659450;28;20085;-69
2022/09/16 11:45:04;;;;;;;8.40;1.48;;;;;;;17.33;64.39;99853.41;20658937;28;20566;-68
2022/09/16 11:55:05;;;;;;;6.53;1.27;;;;;;;17.24;63.83;99848.59;20658626;28;20489;-68
2022/09/16 12:05:07;;;;;;;8.32;1.50;;;;;;;17.89;65.57;99836.31;20655770;28;20054;-70
2022/09/16 12:15:09;;;;;;;4.82;1.55;;;;;;;17.49;62.58;99833.16;20656189;28;20058;-70
2022/09/16 12:25:10;;;;;;;4.35;1.30;;;;;;;17.47;63.11;99813.84;20654916;28;20081;-70
2022/09/16 12:35:12;;;;;;;9.32;1.50;;;;;;;17.35;64.70;99807.44;20654624;28;20566;-71
2022/09/16 12:45:13;;;;;;;6.40;1.40;;;;;;;17.74;64.09;99808.03;20655322;28;20062;-71
2022/09/16 12:55:14;;;;;;;7.25;1.70;;;;;;;17.76;57.96;99800.84;20655308;28;20499;-72
2022/09/16 13:05:16;;;;;;;6.70;1.35;;;;;;;17.96;56.50;99787.34;20649016;28;20047;-70
2022/09/16 13:15:17;;;;;;;6.47;1.45;;;;;;;17.63;56.69;99792.69;20605288;28;20055;-70
2022/09/16 13:25:18;;;;;;;4.93;1.45;;;;;;;17.69;57.52;99785.28;20620067;28;20112;-70
2022/09/16 13:35:20;;;;;;;4.70;0.93;;;;;;;17.60;55.14;99783.13;20669398;28;20054;-70
2022/09/16 13:45:21;;;;;;;5.70;1.30;;;;;;;18.06;53.91;99770.03;20669307;28;20062;-70
2022/09/16 13:55:22;;;;;;;7.28;1.08;;;;;;;18.34;52.47;99773.72;20668318;28;20103;-70
2022/09/16 14:05:24;;;;;;;6.13;0.80;;;;;;;17.98;49.55;99760.81;20663492;28;20050;-70
2022/09/16 14:15:25;;;;;;;3.22;0.90;;;;;;;18.02;51.71;99773.78;20665724;28;20054;-70
2022/09/16 14:25:27;;;;;;;6.47;1.20;;;;;;;17.71;54.27;99764.00;20665493;28;20085;-70
2022/09/16 14:35:30;;;;;;;6.72;0.85;;;;;;;17.59;52.00;99762.91;20663844;28;20138;-70
2022/09/16 14:45:31;;;;;;;1.92;0.73;;;;;;;17.32;52.40;99764.38;20664476;28;20466;-70
2022/09/16 14:55:35;;;;;;;6.90;1.10;;;;;;;17.58;53.02;99768.25;20661866;28;20062;-70
2022/09/16 15:05:36;;;;;;;5.15;1.35;;;;;;;17.70;53.30;99773.75;20660743;28;20058;-70
2022/09/16 15:15:37;;;;;;;2.17;0.60;;;;;;;17.88;52.13;99771.06;20660492;28;20566;-70
2022/09/16 15:25:39;;;;;;;4.72;0.75;;;;;;;17.32;54.34;99772.31;20659149;28;20054;-70
2022/09/16 15:35:41;;;;;;;6.32;0.80;;;;;;;16.94;56.21;99783.13;20659328;28;20506;-70
2022/09/16 15:45:42;;;;;;;2.63;0.70;;;;;;;16.53;58.27;99804.56;20658628;28;20109;-70
2022/09/16 15:55:44;;;;;;;4.40;0.95;;;;;;;16.20;59.93;99817.63;20657873;28;20062;-70
2022/09/16 16:05:45;;;;;;;2.83;0.70;;;;;;;15.95;60.39;99825.84;20633868;28;20069;-70
2022/09/16 16:15:46;;;;;;;3.30;0.45;;;;;;;15.82;59.60;99830.88;20606669;28;20058;-70
2022/09/16 16:25:48;;;;;;;2.38;0.50;;;;;;;15.75;59.70;99824.16;20589028;28;20079;-70
2022/09/16 16:35:49;;;;;;;1.65;0.47;;;;;;;15.62;60.82;99844.94;20564934;28;20054;-70
2022/09/16 16:45:50;;;;;;;1.70;0.50;;;;;;;15.48;60.88;99842.06;20646673;28;20065;-70
2022/09/16 16:55:52;;;;;;;0.90;0.32;;;;;;;15.40;61.61;99857.38;20647797;28;20089;-70
2022/09/16 17:05:53;;;;;;;1.13;0.40;;;;;;;15.28;62.81;99868.44;20647558;28;20743;-70
2022/09/16 17:15:55;;;;;;;3.83;1.85;;;;;;;15.22;63.58;99881.91;20599984;28;20532;-70
2022/09/16 17:25:57;;;;;;;5.07;2.60;;;;;;;15.05;64.91;99895.84;20567328;28;20059;-70
2022/09/16 17:35:58;;;;;;;2.30;0.28;;;;;;;14.25;69.50;99900.78;20566301;28;20061;-70
2022/09/16 17:46:00;;;;;;;1.88;0.47;;;;;;;13.27;93.36;99914.88;20570886;28;20050;-69
2022/09/16 17:56:01;;;;;;;0.88;0.52;;;;;;;12.67;100.00;99905.50;20579123;28;20058;-71
2022/09/16 18:06:03;;;;;;;2.70;0.82;;;;;;;12.55;100.00;99912.88;20577593;28;20058;-71
2022/09/16 18:16:04;;;;;;;4.88;0.60;;;;;;;12.57;100.00;99918.06;20628252;28;20054;-71
2022/09/16 18:26:06;;;;;;;3.03;0.93;;;;;;;12.52;100.00;99928.72;20656930;28;20097;-71
2022/09/16 18:36:07;;;;;;;2.85;0.60;;;;;;;12.43;100.00;99951.75;20654543;28;20065;-70
2022/09/16 18:46:09;;;;;;;3.10;0.80;;;;;;;12.40;100.00;99952.72;20654325;28;20070;-70
2022/09/16 18:56:10;;;;;;;2.33;0.82;;;;;;;12.35;100.00;99973.00;20654970;28;20058;-70
2022/09/16 19:06:12;;;;;;;2.58;0.63;;;;;;;12.25;100.00;99980.28;20652807;28;20058;-70
2022/09/16 19:16:13;;;;;;;4.82;0.90;;;;;;;12.19;100.00;99976.97;20599477;28;20570;-69
2022/09/16 19:26:14;;;;;;;3.03;0.75;;;;;;;12.06;100.00;99977.31;20572032;28;20542;-69
2022/09/16 19:36:17;;;;;;;1.58;0.70;;;;;;;12.15;100.00;99975.34;20577614;28;20062;-69
2022/09/16 19:46:20;;;;;;;2.70;0.93;;;;;;;12.11;100.00;99986.84;20597559;28;20538;-69
2022/09/16 19:56:21;;;;;;;2.35;0.82;;;;;;;11.93;100.00;99999.59;20697933;28;20511;-69
2022/09/16 20:06:23;;;;;;;6.00;0.75;;;;;;;11.95;100.00;100008.25;20710106;28;20529;-69
2022/09/16 20:16:24;;;;;;;5.75;1.10;;;;;;;12.04;100.00;100008.00;20868005;22;20402;-70
2022/09/16 20:26:25;;;;;;;4.45;0.70;;;;;;;12.08;100.00;100027.16;20784331;28;20053;-69
2022/09/16 20:36:29;;;;;;;3.70;0.90;;;;;;;12.12;100.00;100026.19;20793238;28;20072;-69
2022/09/16 20:46:30;;;;;;;2.30;1.00;;;;;;;12.20;100.00;100021.53;20800287;28;20394;-69
2022/09/16 20:56:32;;;;;;;8.95;3.60;;;;;;;12.19;100.00;100042.59;20777425;28;20069;-67
2022/09/16 21:06:39;;;;;;;5.20;1.75;;;;;;;11.97;100.00;100051.03;20734410;28;20066;-67
2022/09/16 21:16:40;;;;;;;6.90;2.03;;;;;;;11.97;100.00;100052.81;20723044;28;20050;-67
2022/09/16 21:26:42;;;;;;;5.38;1.95;;;;;;;11.93;100.00;100059.94;20818638;28;20068;-67
2022/09/16 21:36:44;;;;;;;2.60;1.05;;;;;;;11.90;100.00;100067.88;20725352;28;20046;-67
2022/09/16 21:46:46;;;;;;;3.40;1.00;;;;;;;11.87;100.00;100062.69;20653927;28;20487;-67
2022/09/16 21:56:47;;;;;;;3.25;1.20;;;;;;;11.77;100.00;100066.44;20712368;28;20111;-68
2022/09/16 22:06:49;;;;;;;3.55;0.85;;;;;;;11.68;100.00;100072.75;20729139;28;20054;-68
2022/09/16 22:16:50;;;;;;;1.70;0.60;;;;;;;11.46;100.00;100077.69;20737032;28;20042;-69
2022/09/16 22:26:51;;;;;;;2.90;0.80;;;;;;;11.52;100.00;100077.53;20734008;28;20077;-69
2022/09/16 22:36:53;;;;;;;3.97;0.93;;;;;;;11.45;100.00;100080.34;20733232;28;20053;-70
2022/09/16 22:46:54;;;;;;;3.88;0.75;;;;;;;11.37;100.00;100071.81;20733120;28;20049;-71
2022/09/16 22:56:55;;;;;;;2.55;1.08;;;;;;;11.31;100.00;100070.22;20733114;28;20410;-69
2022/09/16 23:06:57;;;;;;;4.07;0.80;;;;;;;11.30;100.00;100077.19;20731111;28;20054;-70
2022/09/16 23:16:58;;;;;;;3.20;0.80;;;;;;;11.36;100.00;100084.06;20731589;28;20115;-70
2022/09/16 23:26:59;;;;;;;1.85;0.60;;;;;;;11.50;100.00;100079.34;20731315;28;20469;-70
2022/09/16 23:37:01;;;;;;;3.63;0.90;;;;;;;11.27;100.00;100081.66;20729374;28;20069;-71
2022/09/16 23:47:02;;;;;;;3.33;0.90;;;;;;;11.23;100.00;100074.78;20729223;28;20461;-70
2022/09/16 23:57:03;;;;;;;3.65;0.80;;;;;;;11.26;100.00;100072.09;20728660;28;20046;-69
